sensor_id;sensor_type;location;lat;lon;timestamp;temperature;humidity
46652;DHT22;32377;52.182;5.398;2022-07-29T00:00:37;16.40;99.90
46652;DHT22;32377;52.182;5.398;2022-07-29T00:03:02;16.40;99.90
46652;DHT22;32377;52.182;5.398;2022-07-29T00:05:28;16.40;99.90
46652;DHT22;32377;52.182;5.398;2022-07-29T00:07:53;16.30;99.90
46652;DHT22;32377;52.182;5.398;2022-07-29T00:10:19;16.40;99.90
46652;DHT22;32377;52.182;5.398;2022-07-29T00:12:45;16.40;99.90
46652;DHT22;32377;52.182;5.398;2022-07-29T00:15:11;16.30;99.90
46652;DHT22;32377;52.182;5.398;2022-07-29T00:17:36;16.30;99.90
46652;DHT22;32377;52.182;5.398;2022-07-29T00:20:04;16.30;99.90
46652;DHT22;32377;52.182;5.398;2022-07-29T00:22:30;16.20;99.90
46652;DHT22;32377;52.182;5.398;2022-07-29T00:24:55;16.20;99.90
46652;DHT22;32377;52.182;5.398;2022-07-29T00:27:21;16.20;99.90
46652;DHT22;32377;52.182;5.398;2022-07-29T00:29:47;16.20;99.90
46652;DHT22;32377;52.182;5.398;2022-07-29T00:32:12;16.20;99.90
46652;DHT22;32377;52.182;5.398;2022-07-29T00:34:38;16.20;99.90
46652;DHT22;32377;52.182;5.398;2022-07-29T00:37:22;16.10;99.90
46652;DHT22;32377;52.182;5.398;2022-07-29T00:39:50;16.10;99.90
46652;DHT22;32377;52.182;5.398;2022-07-29T00:42:16;16.00;99.90
46652;DHT22;32377;52.182;5.398;2022-07-29T00:44:42;16.00;99.90
46652;DHT22;32377;52.182;5.398;2022-07-29T00:47:10;16.00;99.90
46652;DHT22;32377;52.182;5.398;2022-07-29T00:49:37;16.00;99.90
46652;DHT22;32377;52.182;5.398;2022-07-29T00:52:05;16.00;99.90
46652;DHT22;32377;52.182;5.398;2022-07-29T00:54:32;16.00;99.90
46652;DHT22;32377;52.182;5.398;2022-07-29T00:56:59;16.00;99.90
46652;DHT22;32377;52.182;5.398;2022-07-29T00:59:26;16.00;99.90
46652;DHT22;32377;52.182;5.398;2022-07-29T01:01:52;16.00;99.90
46652;DHT22;32377;52.182;5.398;2022-07-29T01:04:19;16.00;99.90
46652;DHT22;32377;52.182;5.398;2022-07-29T01:06:44;16.00;99.90
46652;DHT22;32377;52.182;5.398;2022-07-29T01:09:10;15.90;99.90
46652;DHT22;32377;52.182;5.398;2022-07-29T01:11:37;16.00;99.90
46652;DHT22;32377;52.182;5.398;2022-07-29T01:14:03;15.90;99.90
46652;DHT22;32377;52.182;5.398;2022-07-29T01:16:32;15.90;99.90
46652;DHT22;32377;52.182;5.398;2022-07-29T01:19:12;15.90;99.90
46652;DHT22;32377;52.182;5.398;2022-07-29T01:21:53;15.90;99.90
46652;DHT22;32377;52.182;5.398;2022-07-29T01:25:00;15.90;99.90
46652;DHT22;32377;52.182;5.398;2022-07-29T01:30:14;15.80;99.90
46652;DHT22;32377;52.182;5.398;2022-07-29T01:32:41;15.80;99.90
46652;DHT22;32377;52.182;5.398;2022-07-29T01:35:19;15.80;99.90
46652;DHT22;32377;52.182;5.398;2022-07-29T01:40:22;15.80;99.90
46652;DHT22;32377;52.182;5.398;2022-07-29T01:42:52;15.70;99.90
46652;DHT22;32377;52.182;5.398;2022-07-29T01:45:21;15.70;99.90
46652;DHT22;32377;52.182;5.398;2022-07-29T01:48:05;15.70;99.90
46652;DHT22;32377;52.182;5.398;2022-07-29T01:50:40;15.60;99.90
46652;DHT22;32377;52.182;5.398;2022-07-29T01:53:09;15.60;99.90
46652;DHT22;32377;52.182;5.398;2022-07-29T01:55:39;15.60;99.90
46652;DHT22;32377;52.182;5.398;2022-07-29T01:58:06;15.60;99.90
46652;DHT22;32377;52.182;5.398;2022-07-29T02:00:34;15.60;99.90
46652;DHT22;32377;52.182;5.398;2022-07-29T02:03:12;15.60;99.90
46652;DHT22;32377;52.182;5.398;2022-07-29T02:05:41;15.60;99.90
46652;DHT22;32377;52.182;5.398;2022-07-29T02:08:08;15.50;99.90
46652;DHT22;32377;52.182;5.398;2022-07-29T02:10:37;15.50;99.90
46652;DHT22;32377;52.182;5.398;2022-07-29T02:13:05;15.60;99.90
46652;DHT22;32377;52.182;5.398;2022-07-29T02:15:33;15.60;99.90
46652;DHT22;32377;52.182;5.398;2022-07-29T02:18:09;15.50;99.90
46652;DHT22;32377;52.182;5.398;2022-07-29T02:20:36;15.50;99.90
46652;DHT22;32377;52.182;5.398;2022-07-29T02:23:04;15.60;99.90
46652;DHT22;32377;52.182;5.398;2022-07-29T02:25:32;15.50;99.90
46652;DHT22;32377;52.182;5.398;2022-07-29T02:27:58;15.50;99.90
46652;DHT22;32377;52.182;5.398;2022-07-29T02:30:27;15.60;99.90
46652;DHT22;32377;52.182;5.398;2022-07-29T02:32:54;15.60;99.90
46652;DHT22;32377;52.182;5.398;2022-07-29T02:35:21;15.60;99.90
46652;DHT22;32377;52.182;5.398;2022-07-29T02:37:48;15.50;99.90
46652;DHT22;32377;52.182;5.398;2022-07-29T02:40:35;15.60;99.90
46652;DHT22;32377;52.182;5.398;2022-07-29T02:43:04;15.50;99.90
46652;DHT22;32377;52.182;5.398;2022-07-29T02:45:30;15.60;99.90
46652;DHT22;32377;52.182;5.398;2022-07-29T02:47:59;15.50;99.90
46652;DHT22;32377;52.182;5.398;2022-07-29T02:50:31;15.50;99.90
46652;DHT22;32377;52.182;5.398;2022-07-29T02:53:01;15.50;99.90
46652;DHT22;32377;52.182;5.398;2022-07-29T02:55:40;15.50;99.90
46652;DHT22;32377;52.182;5.398;2022-07-29T02:58:20;15.50;99.90
46652;DHT22;32377;52.182;5.398;2022-07-29T03:00:48;15.50;99.90
46652;DHT22;32377;52.182;5.398;2022-07-29T03:03:17;15.50;99.90
46652;DHT22;32377;52.182;5.398;2022-07-29T03:05:43;15.50;99.90
46652;DHT22;32377;52.182;5.398;2022-07-29T03:08:10;15.50;99.90
46652;DHT22;32377;52.182;5.398;2022-07-29T03:10:39;15.40;99.90
46652;DHT22;32377;52.182;5.398;2022-07-29T03:13:05;15.40;99.90
46652;DHT22;32377;52.182;5.398;2022-07-29T03:15:31;15.40;99.90
46652;DHT22;32377;52.182;5.398;2022-07-29T03:17:58;15.40;99.90
46652;DHT22;32377;52.182;5.398;2022-07-29T03:20:24;15.40;99.90
46652;DHT22;32377;52.182;5.398;2022-07-29T03:22:50;15.40;99.90
46652;DHT22;32377;52.182;5.398;2022-07-29T03:25:17;15.40;99.90
46652;DHT22;32377;52.182;5.398;2022-07-29T03:27:43;15.40;99.90
46652;DHT22;32377;52.182;5.398;2022-07-29T03:30:10;15.40;99.90
46652;DHT22;32377;52.182;5.398;2022-07-29T03:32:37;15.40;99.90
46652;DHT22;32377;52.182;5.398;2022-07-29T03:35:03;15.40;99.90
46652;DHT22;32377;52.182;5.398;2022-07-29T03:37:29;15.30;99.90
46652;DHT22;32377;52.182;5.398;2022-07-29T03:39:57;15.40;99.90
46652;DHT22;32377;52.182;5.398;2022-07-29T03:42:30;15.40;99.90
46652;DHT22;32377;52.182;5.398;2022-07-29T03:44:57;15.40;99.90
46652;DHT22;32377;52.182;5.398;2022-07-29T03:47:26;15.40;99.90
46652;DHT22;32377;52.182;5.398;2022-07-29T03:49:54;15.30;99.90
46652;DHT22;32377;52.182;5.398;2022-07-29T03:52:21;15.30;99.90
46652;DHT22;32377;52.182;5.398;2022-07-29T03:54:47;15.30;99.90
46652;DHT22;32377;52.182;5.398;2022-07-29T03:57:14;15.30;99.90
46652;DHT22;32377;52.182;5.398;2022-07-29T03:59:41;15.30;99.90
46652;DHT22;32377;52.182;5.398;2022-07-29T04:02:09;15.20;99.90
46652;DHT22;32377;52.182;5.398;2022-07-29T04:04:36;15.20;99.90
46652;DHT22;32377;52.182;5.398;2022-07-29T04:07:02;15.20;99.90
46652;DHT22;32377;52.182;5.398;2022-07-29T04:09:28;15.20;99.90
46652;DHT22;32377;52.182;5.398;2022-07-29T04:11:53;15.20;99.90
46652;DHT22;32377;52.182;5.398;2022-07-29T04:14:19;15.20;99.90
46652;DHT22;32377;52.182;5.398;2022-07-29T04:16:45;15.20;99.90
46652;DHT22;32377;52.182;5.398;2022-07-29T04:19:11;15.20;99.90
46652;DHT22;32377;52.182;5.398;2022-07-29T04:21:38;15.30;99.90
46652;DHT22;32377;52.182;5.398;2022-07-29T04:24:04;15.30;99.90
46652;DHT22;32377;52.182;5.398;2022-07-29T04:26:30;15.30;99.90
46652;DHT22;32377;52.182;5.398;2022-07-29T04:28:55;15.30;99.90
46652;DHT22;32377;52.182;5.398;2022-07-29T04:31:21;15.30;99.90
46652;DHT22;32377;52.182;5.398;2022-07-29T04:33:47;15.30;99.90
46652;DHT22;32377;52.182;5.398;2022-07-29T04:36:12;15.40;99.90
46652;DHT22;32377;52.182;5.398;2022-07-29T04:38:38;15.40;99.90
46652;DHT22;32377;52.182;5.398;2022-07-29T04:41:04;15.40;99.90
46652;DHT22;32377;52.182;5.398;2022-07-29T04:43:30;15.30;99.90
46652;DHT22;32377;52.182;5.398;2022-07-29T04:45:55;15.30;99.90
46652;DHT22;32377;52.182;5.398;2022-07-29T04:48:21;15.30;99.90
46652;DHT22;32377;52.182;5.398;2022-07-29T04:50:46;15.30;99.90
46652;DHT22;32377;52.182;5.398;2022-07-29T04:53:12;15.40;99.90
46652;DHT22;32377;52.182;5.398;2022-07-29T04:55:37;15.40;99.90
46652;DHT22;32377;52.182;5.398;2022-07-29T04:58:03;15.50;99.90
46652;DHT22;32377;52.182;5.398;2022-07-29T05:00:29;15.50;99.90
46652;DHT22;32377;52.182;5.398;2022-07-29T05:02:54;15.50;99.90
46652;DHT22;32377;52.182;5.398;2022-07-29T05:05:20;15.50;99.90
46652;DHT22;32377;52.182;5.398;2022-07-29T05:07:45;15.50;99.90
46652;DHT22;32377;52.182;5.398;2022-07-29T05:10:11;15.50;99.90
46652;DHT22;32377;52.182;5.398;2022-07-29T05:12:37;15.50;99.90
46652;DHT22;32377;52.182;5.398;2022-07-29T05:15:03;15.50;99.90
46652;DHT22;32377;52.182;5.398;2022-07-29T05:17:28;15.60;99.90
46652;DHT22;32377;52.182;5.398;2022-07-29T05:19:54;15.50;99.90
46652;DHT22;32377;52.182;5.398;2022-07-29T05:22:20;15.50;99.90
46652;DHT22;32377;52.182;5.398;2022-07-29T05:24:46;15.50;99.90
46652;DHT22;32377;52.182;5.398;2022-07-29T05:27:12;15.50;99.90
46652;DHT22;32377;52.182;5.398;2022-07-29T05:29:38;15.50;99.90
46652;DHT22;32377;52.182;5.398;2022-07-29T05:32:04;15.60;99.90
46652;DHT22;32377;52.182;5.398;2022-07-29T05:34:30;15.60;99.90
46652;DHT22;32377;52.182;5.398;2022-07-29T05:36:56;15.60;99.90
46652;DHT22;32377;52.182;5.398;2022-07-29T05:39:22;15.70;99.90
46652;DHT22;32377;52.182;5.398;2022-07-29T05:41:47;15.60;99.90
46652;DHT22;32377;52.182;5.398;2022-07-29T05:44:13;15.70;99.90
46652;DHT22;32377;52.182;5.398;2022-07-29T05:46:39;15.70;99.90
46652;DHT22;32377;52.182;5.398;2022-07-29T05:49:04;15.80;99.90
46652;DHT22;32377;52.182;5.398;2022-07-29T05:51:32;15.80;99.90
46652;DHT22;32377;52.182;5.398;2022-07-29T05:53:58;15.80;99.90
46652;DHT22;32377;52.182;5.398;2022-07-29T05:56:24;15.80;99.90
46652;DHT22;32377;52.182;5.398;2022-07-29T05:58:50;15.90;99.90
46652;DHT22;32377;52.182;5.398;2022-07-29T06:01:15;16.00;99.90
46652;DHT22;32377;52.182;5.398;2022-07-29T06:03:41;16.10;99.90
46652;DHT22;32377;52.182;5.398;2022-07-29T06:06:07;16.30;99.90
46652;DHT22;32377;52.182;5.398;2022-07-29T06:08:33;16.60;99.90
46652;DHT22;32377;52.182;5.398;2022-07-29T06:11:00;16.80;99.90
46652;DHT22;32377;52.182;5.398;2022-07-29T06:13:25;16.90;99.90
46652;DHT22;32377;52.182;5.398;2022-07-29T06:15:51;16.90;99.90
46652;DHT22;32377;52.182;5.398;2022-07-29T06:18:17;17.00;99.90
46652;DHT22;32377;52.182;5.398;2022-07-29T06:20:42;17.10;99.90
46652;DHT22;32377;52.182;5.398;2022-07-29T06:23:08;17.10;99.90
46652;DHT22;32377;52.182;5.398;2022-07-29T06:25:35;17.30;99.90
46652;DHT22;32377;52.182;5.398;2022-07-29T06:28:02;17.50;99.90
46652;DHT22;32377;52.182;5.398;2022-07-29T06:30:27;17.50;99.90
46652;DHT22;32377;52.182;5.398;2022-07-29T06:32:54;17.50;99.90
46652;DHT22;32377;52.182;5.398;2022-07-29T06:35:20;17.30;99.90
46652;DHT22;32377;52.182;5.398;2022-07-29T06:37:45;17.30;99.90
46652;DHT22;32377;52.182;5.398;2022-07-29T06:40:11;17.20;99.90
46652;DHT22;32377;52.182;5.398;2022-07-29T06:42:56;17.20;99.90
46652;DHT22;32377;52.182;5.398;2022-07-29T06:45:21;17.20;99.90
46652;DHT22;32377;52.182;5.398;2022-07-29T06:47:47;17.00;99.90
46652;DHT22;32377;52.182;5.398;2022-07-29T06:50:13;16.90;99.90
46652;DHT22;32377;52.182;5.398;2022-07-29T06:52:39;16.80;99.90
46652;DHT22;32377;52.182;5.398;2022-07-29T06:55:06;16.70;99.90
46652;DHT22;32377;52.182;5.398;2022-07-29T06:57:32;16.70;99.90
46652;DHT22;32377;52.182;5.398;2022-07-29T06:59:58;16.80;99.90
46652;DHT22;32377;52.182;5.398;2022-07-29T07:02:23;16.80;99.90
46652;DHT22;32377;52.182;5.398;2022-07-29T07:04:49;16.80;99.90
46652;DHT22;32377;52.182;5.398;2022-07-29T07:07:14;16.80;99.90
46652;DHT22;32377;52.182;5.398;2022-07-29T07:09:40;16.90;99.90
46652;DHT22;32377;52.182;5.398;2022-07-29T07:12:06;16.90;99.90
46652;DHT22;32377;52.182;5.398;2022-07-29T07:14:31;17.00;99.90
46652;DHT22;32377;52.182;5.398;2022-07-29T07:16:57;17.00;99.90
46652;DHT22;32377;52.182;5.398;2022-07-29T07:19:22;17.20;99.90
46652;DHT22;32377;52.182;5.398;2022-07-29T07:21:48;17.60;99.90
46652;DHT22;32377;52.182;5.398;2022-07-29T07:24:14;17.60;99.90
46652;DHT22;32377;52.182;5.398;2022-07-29T07:26:39;17.90;99.90
46652;DHT22;32377;52.182;5.398;2022-07-29T07:29:05;18.20;99.90
46652;DHT22;32377;52.182;5.398;2022-07-29T07:31:31;18.30;99.90
46652;DHT22;32377;52.182;5.398;2022-07-29T07:33:57;18.60;99.90
46652;DHT22;32377;52.182;5.398;2022-07-29T07:36:23;18.70;99.90
46652;DHT22;32377;52.182;5.398;2022-07-29T07:38:49;19.00;99.90
46652;DHT22;32377;52.182;5.398;2022-07-29T07:41:14;19.20;99.90
46652;DHT22;32377;52.182;5.398;2022-07-29T07:43:40;19.40;99.90
46652;DHT22;32377;52.182;5.398;2022-07-29T07:46:06;19.60;99.90
46652;DHT22;32377;52.182;5.398;2022-07-29T07:48:31;19.50;99.90
46652;DHT22;32377;52.182;5.398;2022-07-29T07:50:57;19.60;99.90
46652;DHT22;32377;52.182;5.398;2022-07-29T07:53:23;19.50;99.90
46652;DHT22;32377;52.182;5.398;2022-07-29T07:55:48;19.50;99.90
46652;DHT22;32377;52.182;5.398;2022-07-29T07:58:14;19.40;99.90
46652;DHT22;32377;52.182;5.398;2022-07-29T08:00:39;19.40;99.90
46652;DHT22;32377;52.182;5.398;2022-07-29T08:03:05;19.10;99.90
46652;DHT22;32377;52.182;5.398;2022-07-29T08:05:30;19.00;99.90
46652;DHT22;32377;52.182;5.398;2022-07-29T08:07:56;18.90;99.90
46652;DHT22;32377;52.182;5.398;2022-07-29T08:10:22;18.90;99.90
46652;DHT22;32377;52.182;5.398;2022-07-29T08:13:07;19.10;99.90
46652;DHT22;32377;52.182;5.398;2022-07-29T08:15:33;19.00;99.90
46652;DHT22;32377;52.182;5.398;2022-07-29T08:17:59;18.90;99.90
46652;DHT22;32377;52.182;5.398;2022-07-29T08:20:25;18.80;99.90
46652;DHT22;32377;52.182;5.398;2022-07-29T08:22:51;18.80;99.90
46652;DHT22;32377;52.182;5.398;2022-07-29T08:25:18;18.80;99.90
46652;DHT22;32377;52.182;5.398;2022-07-29T08:27:48;18.70;99.90
46652;DHT22;32377;52.182;5.398;2022-07-29T08:30:15;19.10;99.90
46652;DHT22;32377;52.182;5.398;2022-07-29T08:32:41;19.30;99.90
46652;DHT22;32377;52.182;5.398;2022-07-29T08:35:07;19.30;99.90
46652;DHT22;32377;52.182;5.398;2022-07-29T08:37:32;19.60;99.90
46652;DHT22;32377;52.182;5.398;2022-07-29T08:39:58;19.50;99.90
46652;DHT22;32377;52.182;5.398;2022-07-29T08:42:23;19.50;99.90
46652;DHT22;32377;52.182;5.398;2022-07-29T08:44:49;19.60;99.90
46652;DHT22;32377;52.182;5.398;2022-07-29T08:47:16;20.00;99.90
46652;DHT22;32377;52.182;5.398;2022-07-29T08:49:42;19.90;99.90
46652;DHT22;32377;52.182;5.398;2022-07-29T08:52:10;20.40;99.90
46652;DHT22;32377;52.182;5.398;2022-07-29T08:54:37;20.60;99.90
46652;DHT22;32377;52.182;5.398;2022-07-29T08:57:04;20.50;99.90
46652;DHT22;32377;52.182;5.398;2022-07-29T08:59:30;20.60;99.90
46652;DHT22;32377;52.182;5.398;2022-07-29T09:01:59;20.50;99.90
46652;DHT22;32377;52.182;5.398;2022-07-29T09:04:29;20.50;99.90
46652;DHT22;32377;52.182;5.398;2022-07-29T09:06:57;20.50;99.90
46652;DHT22;32377;52.182;5.398;2022-07-29T09:09:25;20.40;99.90
46652;DHT22;32377;52.182;5.398;2022-07-29T09:11:51;20.80;99.90
46652;DHT22;32377;52.182;5.398;2022-07-29T09:14:18;21.00;99.90
46652;DHT22;32377;52.182;5.398;2022-07-29T09:17:02;21.10;99.90
46652;DHT22;32377;52.182;5.398;2022-07-29T09:19:31;21.20;99.90
46652;DHT22;32377;52.182;5.398;2022-07-29T09:22:00;21.30;99.90
46652;DHT22;32377;52.182;5.398;2022-07-29T09:24:43;21.60;99.90
46652;DHT22;32377;52.182;5.398;2022-07-29T09:27:21;21.80;99.90
46652;DHT22;32377;52.182;5.398;2022-07-29T09:30:02;21.80;99.90
46652;DHT22;32377;52.182;5.398;2022-07-29T09:32:29;21.70;99.90
46652;DHT22;32377;52.182;5.398;2022-07-29T09:35:17;21.60;99.90
46652;DHT22;32377;52.182;5.398;2022-07-29T09:37:44;21.60;99.90
46652;DHT22;32377;52.182;5.398;2022-07-29T09:40:18;21.80;99.90
46652;DHT22;32377;52.182;5.398;2022-07-29T09:42:44;21.80;99.90
46652;DHT22;32377;52.182;5.398;2022-07-29T09:45:10;21.70;99.90
46652;DHT22;32377;52.182;5.398;2022-07-29T09:47:47;21.70;99.90
46652;DHT22;32377;52.182;5.398;2022-07-29T09:50:15;21.80;99.90
46652;DHT22;32377;52.182;5.398;2022-07-29T09:52:46;21.80;99.90
46652;DHT22;32377;52.182;5.398;2022-07-29T09:55:12;21.80;99.90
46652;DHT22;32377;52.182;5.398;2022-07-29T09:57:38;21.70;99.90
46652;DHT22;32377;52.182;5.398;2022-07-29T10:00:12;21.70;99.90
46652;DHT22;32377;52.182;5.398;2022-07-29T10:02:39;21.70;99.90
46652;DHT22;32377;52.182;5.398;2022-07-29T10:05:25;21.60;99.90
46652;DHT22;32377;52.182;5.398;2022-07-29T10:07:53;21.50;99.90
46652;DHT22;32377;52.182;5.398;2022-07-29T10:12:57;21.40;99.90
46652;DHT22;32377;52.182;5.398;2022-07-29T10:15:25;21.50;99.90
46652;DHT22;32377;52.182;5.398;2022-07-29T10:17:52;21.40;99.90
46652;DHT22;32377;52.182;5.398;2022-07-29T10:20:19;21.50;99.90
46652;DHT22;32377;52.182;5.398;2022-07-29T10:22:46;21.10;99.90
46652;DHT22;32377;52.182;5.398;2022-07-29T10:25:14;21.20;99.90
46652;DHT22;32377;52.182;5.398;2022-07-29T10:27:40;21.40;99.90
46652;DHT22;32377;52.182;5.398;2022-07-29T10:30:06;21.40;99.90
46652;DHT22;32377;52.182;5.398;2022-07-29T10:32:38;21.60;99.90
46652;DHT22;32377;52.182;5.398;2022-07-29T10:35:24;21.80;99.90
46652;DHT22;32377;52.182;5.398;2022-07-29T10:38:04;22.00;99.90
46652;DHT22;32377;52.182;5.398;2022-07-29T10:40:36;22.10;99.90
46652;DHT22;32377;52.182;5.398;2022-07-29T10:43:27;22.10;99.90
46652;DHT22;32377;52.182;5.398;2022-07-29T10:45:59;22.00;99.90
46652;DHT22;32377;52.182;5.398;2022-07-29T10:48:25;21.90;99.90
46652;DHT22;32377;52.182;5.398;2022-07-29T10:50:56;22.00;99.90
46652;DHT22;32377;52.182;5.398;2022-07-29T10:53:23;21.80;99.90
46652;DHT22;32377;52.182;5.398;2022-07-29T10:55:49;22.00;99.90
46652;DHT22;32377;52.182;5.398;2022-07-29T10:58:18;22.30;99.90
46652;DHT22;32377;52.182;5.398;2022-07-29T11:00:45;22.40;99.90
46652;DHT22;32377;52.182;5.398;2022-07-29T11:06:05;22.50;99.90
46652;DHT22;32377;52.182;5.398;2022-07-29T11:08:31;22.70;99.90
46652;DHT22;32377;52.182;5.398;2022-07-29T11:16:16;22.60;99.90
46652;DHT22;32377;52.182;5.398;2022-07-29T11:21:37;22.80;99.90
46652;DHT22;32377;52.182;5.398;2022-07-29T11:24:28;22.90;99.90
46652;DHT22;32377;52.182;5.398;2022-07-29T11:27:18;22.80;99.90
46652;DHT22;32377;52.182;5.398;2022-07-29T11:29:50;22.90;99.90
46652;DHT22;32377;52.182;5.398;2022-07-29T11:32:16;22.90;99.90
46652;DHT22;32377;52.182;5.398;2022-07-29T11:34:45;23.00;99.90
46652;DHT22;32377;52.182;5.398;2022-07-29T11:39:42;23.00;99.90
46652;DHT22;32377;52.182;5.398;2022-07-29T11:47:25;23.10;99.90
46652;DHT22;32377;52.182;5.398;2022-07-29T11:49:51;23.20;99.90
46652;DHT22;32377;52.182;5.398;2022-07-29T11:52:19;23.40;99.90
46652;DHT22;32377;52.182;5.398;2022-07-29T11:54:47;23.40;99.90
46652;DHT22;32377;52.182;5.398;2022-07-29T11:57:15;23.40;99.90
46652;DHT22;32377;52.182;5.398;2022-07-29T11:59:44;23.40;99.90
46652;DHT22;32377;52.182;5.398;2022-07-29T12:02:10;23.30;99.90
46652;DHT22;32377;52.182;5.398;2022-07-29T12:04:55;23.30;99.90
46652;DHT22;32377;52.182;5.398;2022-07-29T12:07:32;23.30;99.90
46652;DHT22;32377;52.182;5.398;2022-07-29T12:10:00;23.30;99.90
46652;DHT22;32377;52.182;5.398;2022-07-29T12:12:26;23.20;99.90
46652;DHT22;32377;52.182;5.398;2022-07-29T12:14:52;23.20;99.90
46652;DHT22;32377;52.182;5.398;2022-07-29T12:17:34;23.30;99.90
46652;DHT22;32377;52.182;5.398;2022-07-29T12:20:04;23.30;99.90
46652;DHT22;32377;52.182;5.398;2022-07-29T12:22:38;23.40;99.90
46652;DHT22;32377;52.182;5.398;2022-07-29T12:25:07;23.50;99.90
46652;DHT22;32377;52.182;5.398;2022-07-29T12:27:33;23.60;99.90
46652;DHT22;32377;52.182;5.398;2022-07-29T12:30:01;23.70;99.90
46652;DHT22;32377;52.182;5.398;2022-07-29T12:32:42;23.80;99.90
46652;DHT22;32377;52.182;5.398;2022-07-29T12:35:18;23.80;99.90
46652;DHT22;32377;52.182;5.398;2022-07-29T12:37:47;23.80;99.90
46652;DHT22;32377;52.182;5.398;2022-07-29T12:40:16;23.80;99.90
46652;DHT22;32377;52.182;5.398;2022-07-29T12:43:05;23.80;99.90
46652;DHT22;32377;52.182;5.398;2022-07-29T12:45:31;23.80;99.90
46652;DHT22;32377;52.182;5.398;2022-07-29T12:47:57;23.80;99.90
46652;DHT22;32377;52.182;5.398;2022-07-29T12:50:22;23.70;99.90
46652;DHT22;32377;52.182;5.398;2022-07-29T12:52:49;23.80;99.90
46652;DHT22;32377;52.182;5.398;2022-07-29T12:55:15;23.80;99.90
46652;DHT22;32377;52.182;5.398;2022-07-29T12:57:50;23.90;99.90
46652;DHT22;32377;52.182;5.398;2022-07-29T13:00:22;23.90;99.90
46652;DHT22;32377;52.182;5.398;2022-07-29T13:02:58;23.90;99.90
46652;DHT22;32377;52.182;5.398;2022-07-29T13:05:41;23.70;99.90
46652;DHT22;32377;52.182;5.398;2022-07-29T13:08:14;23.70;99.90
46652;DHT22;32377;52.182;5.398;2022-07-29T13:10:40;23.70;99.90
46652;DHT22;32377;52.182;5.398;2022-07-29T13:15:34;23.70;99.90
46652;DHT22;32377;52.182;5.398;2022-07-29T13:17:59;23.70;99.90
46652;DHT22;32377;52.182;5.398;2022-07-29T13:20:27;23.70;99.90
46652;DHT22;32377;52.182;5.398;2022-07-29T13:22:58;24.00;99.90
46652;DHT22;32377;52.182;5.398;2022-07-29T13:25:27;23.90;99.90
46652;DHT22;32377;52.182;5.398;2022-07-29T13:27:54;24.00;99.90
46652;DHT22;32377;52.182;5.398;2022-07-29T13:30:20;23.90;99.90
46652;DHT22;32377;52.182;5.398;2022-07-29T13:32:47;23.90;99.90
46652;DHT22;32377;52.182;5.398;2022-07-29T13:35:13;23.90;99.90
46652;DHT22;32377;52.182;5.398;2022-07-29T13:37:39;24.10;99.90
46652;DHT22;32377;52.182;5.398;2022-07-29T13:40:06;24.10;99.90
46652;DHT22;32377;52.182;5.398;2022-07-29T13:42:32;24.10;99.90
46652;DHT22;32377;52.182;5.398;2022-07-29T13:44:58;24.20;99.90
46652;DHT22;32377;52.182;5.398;2022-07-29T13:47:24;24.10;99.90
46652;DHT22;32377;52.182;5.398;2022-07-29T13:49:50;24.20;99.90
46652;DHT22;32377;52.182;5.398;2022-07-29T13:52:16;24.10;99.90
46652;DHT22;32377;52.182;5.398;2022-07-29T13:54:42;24.10;99.90
46652;DHT22;32377;52.182;5.398;2022-07-29T13:57:09;24.10;99.90
46652;DHT22;32377;52.182;5.398;2022-07-29T13:59:35;24.10;99.90
46652;DHT22;32377;52.182;5.398;2022-07-29T14:02:01;24.10;99.90
46652;DHT22;32377;52.182;5.398;2022-07-29T14:04:27;24.10;99.90
46652;DHT22;32377;52.182;5.398;2022-07-29T14:06:52;24.20;99.90
46652;DHT22;32377;52.182;5.398;2022-07-29T14:09:18;24.20;99.90
46652;DHT22;32377;52.182;5.398;2022-07-29T14:11:44;24.10;99.90
46652;DHT22;32377;52.182;5.398;2022-07-29T14:14:11;24.20;99.90
46652;DHT22;32377;52.182;5.398;2022-07-29T14:16:36;24.20;99.90
46652;DHT22;32377;52.182;5.398;2022-07-29T14:19:02;24.20;99.90
46652;DHT22;32377;52.182;5.398;2022-07-29T14:21:28;24.40;99.90
46652;DHT22;32377;52.182;5.398;2022-07-29T14:23:53;24.40;99.90
46652;DHT22;32377;52.182;5.398;2022-07-29T14:26:20;24.40;99.90
46652;DHT22;32377;52.182;5.398;2022-07-29T14:28:47;24.40;99.90
46652;DHT22;32377;52.182;5.398;2022-07-29T14:31:12;24.40;99.90
46652;DHT22;32377;52.182;5.398;2022-07-29T14:33:38;24.30;99.90
46652;DHT22;32377;52.182;5.398;2022-07-29T14:36:03;24.20;99.90
46652;DHT22;32377;52.182;5.398;2022-07-29T14:38:29;24.20;99.90
46652;DHT22;32377;52.182;5.398;2022-07-29T14:40:54;24.20;99.90
46652;DHT22;32377;52.182;5.398;2022-07-29T14:43:20;24.30;99.90
46652;DHT22;32377;52.182;5.398;2022-07-29T14:45:46;24.10;99.90
46652;DHT22;32377;52.182;5.398;2022-07-29T14:48:11;24.30;99.90
46652;DHT22;32377;52.182;5.398;2022-07-29T14:50:37;24.40;99.90
46652;DHT22;32377;52.182;5.398;2022-07-29T14:53:03;24.30;99.90
46652;DHT22;32377;52.182;5.398;2022-07-29T14:55:29;24.10;99.90
46652;DHT22;32377;52.182;5.398;2022-07-29T14:57:55;24.10;99.90
46652;DHT22;32377;52.182;5.398;2022-07-29T15:00:21;24.20;99.90
46652;DHT22;32377;52.182;5.398;2022-07-29T15:02:48;24.20;99.90
46652;DHT22;32377;52.182;5.398;2022-07-29T15:05:13;24.20;99.90
46652;DHT22;32377;52.182;5.398;2022-07-29T15:07:39;24.30;99.90
46652;DHT22;32377;52.182;5.398;2022-07-29T15:10:05;24.50;99.90
46652;DHT22;32377;52.182;5.398;2022-07-29T15:12:31;24.70;99.90
46652;DHT22;32377;52.182;5.398;2022-07-29T15:14:57;24.40;99.90
46652;DHT22;32377;52.182;5.398;2022-07-29T15:17:23;24.20;99.90
46652;DHT22;32377;52.182;5.398;2022-07-29T15:19:48;24.30;99.90
46652;DHT22;32377;52.182;5.398;2022-07-29T15:22:14;24.10;99.90
46652;DHT22;32377;52.182;5.398;2022-07-29T15:24:39;24.10;99.90
46652;DHT22;32377;52.182;5.398;2022-07-29T15:27:05;24.00;99.90
46652;DHT22;32377;52.182;5.398;2022-07-29T15:29:30;23.90;99.90
46652;DHT22;32377;52.182;5.398;2022-07-29T15:31:56;23.90;99.90
46652;DHT22;32377;52.182;5.398;2022-07-29T15:34:22;23.90;99.90
46652;DHT22;32377;52.182;5.398;2022-07-29T15:36:52;23.80;99.90
46652;DHT22;32377;52.182;5.398;2022-07-29T15:39:18;23.90;99.90
46652;DHT22;32377;52.182;5.398;2022-07-29T15:41:44;24.00;99.90
46652;DHT22;32377;52.182;5.398;2022-07-29T15:44:09;24.00;99.90
46652;DHT22;32377;52.182;5.398;2022-07-29T15:46:35;24.10;99.90
46652;DHT22;32377;52.182;5.398;2022-07-29T15:49:19;24.00;99.90
46652;DHT22;32377;52.182;5.398;2022-07-29T15:51:45;24.10;99.40
46652;DHT22;32377;52.182;5.398;2022-07-29T15:54:11;24.00;99.50
46652;DHT22;32377;52.182;5.398;2022-07-29T15:56:37;24.00;99.40
46652;DHT22;32377;52.182;5.398;2022-07-29T15:59:05;23.90;99.60
46652;DHT22;32377;52.182;5.398;2022-07-29T16:01:31;24.00;99.50
46652;DHT22;32377;52.182;5.398;2022-07-29T16:03:57;24.00;99.20